createdAt,value
2022-10-23T00:00:45.977Z,91.71
2022-10-23T00:01:47.449Z,91.72
2022-10-23T00:02:52.547Z,91.15
2022-10-23T00:03:56.077Z,91.95
2022-10-23T00:04:57.859Z,91.31
2022-10-23T00:05:59.300Z,91.16
2022-10-23T00:07:00.735Z,91.66
2022-10-23T00:08:02.147Z,92.48
2022-10-23T00:09:05.937Z,93.65
2022-10-23T00:10:09.624Z,93.38
2022-10-23T00:11:13.845Z,93.03
2022-10-23T00:12:15.313Z,92.37
2022-10-23T00:13:16.744Z,92.93
2022-10-23T00:14:19.485Z,92.72
2022-10-23T00:15:23.561Z,93.80
2022-10-23T00:16:25.122Z,93.16
2022-10-23T00:17:26.577Z,93.25
2022-10-23T00:18:28.061Z,92.60
2022-10-23T00:19:29.551Z,92.23
2022-10-23T00:20:31.020Z,92.37
2022-10-23T00:21:32.535Z,93.00
2022-10-23T00:22:34.890Z,92.65
2022-10-23T00:23:36.349Z,92.53
2022-10-23T00:24:37.821Z,92.66
2022-10-23T00:25:39.316Z,92.44
2022-10-23T00:26:41.054Z,92.77
2022-10-23T00:27:42.796Z,93.67
2022-10-23T00:28:46.015Z,93.33
2022-10-23T00:29:47.474Z,93.13
2022-10-23T00:30:50.248Z,92.70
2022-10-23T00:31:51.694Z,93.61
2022-10-23T00:32:53.127Z,93.85
2022-10-23T00:33:54.568Z,93.55
2022-10-23T00:34:55.986Z,93.23
2022-10-23T00:35:57.453Z,93.21
2022-10-23T00:36:58.907Z,92.79
2022-10-23T00:38:00.343Z,93.36
2022-10-23T00:39:01.839Z,93.06
2022-10-23T00:40:04.009Z,93.23
2022-10-23T00:41:07.187Z,92.74
2022-10-23T00:42:10.629Z,92.31
2022-10-23T00:43:18.285Z,92.98
2022-10-23T00:44:57.255Z,92.81
2022-10-23T00:46:00.487Z,92.34
2022-10-23T00:47:02.021Z,92.53
2022-10-23T00:48:04.303Z,93.24
2022-10-23T00:49:07.708Z,92.86
2022-10-23T00:50:09.276Z,92.67
2022-10-23T00:51:10.691Z,92.42
2022-10-23T00:52:13.697Z,92.51
2022-10-23T00:53:16.655Z,92.82
2022-10-23T00:54:24.419Z,92.91
2022-10-23T00:55:27.767Z,92.55
2022-10-23T00:56:31.227Z,92.80
2022-10-23T00:57:32.687Z,92.97
2022-10-23T00:58:34.128Z,92.65
2022-10-23T00:59:35.816Z,92.41
2022-10-23T01:00:43.979Z,93.27
2022-10-23T01:01:46.972Z,93.08
2022-10-23T01:02:48.652Z,92.82
2022-10-23T01:03:51.099Z,93.35
2022-10-23T01:04:52.597Z,93.07
2022-10-23T01:06:08.028Z,93.14
2022-10-23T01:07:15.488Z,93.08
2022-10-23T01:08:23.207Z,93.09
2022-10-23T01:09:31.488Z,92.88
2022-10-23T01:10:40.728Z,92.65
2022-10-23T01:11:48.583Z,92.81
2022-10-23T01:12:55.343Z,92.79
2022-10-23T01:15:10.174Z,92.44
2022-10-23T01:16:17.787Z,92.49
2022-10-23T01:17:27.920Z,92.05
2022-10-23T01:18:36.793Z,92.99
2022-10-23T01:19:50.994Z,92.71
2022-10-23T01:20:59.739Z,93.45
2022-10-23T01:22:12.920Z,95.20
2022-10-23T01:23:47.575Z,95.31
2022-10-23T01:24:56.475Z,94.63
2022-10-23T01:26:23.742Z,93.88
2022-10-23T01:27:31.519Z,93.30
2022-10-23T01:28:39.547Z,93.83
2022-10-23T01:29:45.814Z,93.53
2022-10-23T01:30:48.395Z,93.18
2022-10-23T01:31:53.798Z,92.78
2022-10-23T01:33:01.579Z,92.35
2022-10-23T01:34:08.613Z,93.54
2022-10-23T01:35:13.994Z,94.02
2022-10-23T01:36:20.489Z,93.36
2022-10-23T01:37:28.351Z,93.60
2022-10-23T01:38:38.831Z,94.05
2022-10-23T01:39:47.005Z,94.32
2022-10-23T01:40:54.647Z,94.21
2022-10-23T01:42:03.870Z,94.63
2022-10-23T01:43:12.683Z,94.83
2022-10-23T01:44:20.045Z,94.62
2022-10-23T01:45:25.493Z,94.63
2022-10-23T01:46:28.218Z,96.22
2022-10-23T01:47:34.122Z,97.58
2022-10-23T01:48:37.084Z,98.67
2022-10-23T01:49:41.722Z,99.22
2022-10-23T01:50:45.111Z,99.33
2022-10-23T01:51:51.496Z,99.04
2022-10-23T01:52:52.966Z,98.29
2022-10-23T01:53:57.728Z,98.25
2022-10-23T01:55:01.436Z,99.52
2022-10-23T01:56:07.208Z,99.21
2022-10-23T01:57:10.982Z,100.00
2022-10-23T01:58:16.275Z,100.00
2022-10-23T01:59:22.370Z,100.00
2022-10-23T02:00:24.042Z,100.00
2022-10-23T02:01:29.884Z,100.00
2022-10-23T02:02:33.521Z,100.00
2022-10-23T02:03:37.058Z,100.00
2022-10-23T02:04:45.697Z,100.00
2022-10-23T02:05:47.149Z,100.00
2022-10-23T02:06:48.634Z,100.00
2022-10-23T02:07:51.003Z,100.00
2022-10-23T02:08:52.548Z,100.00
2022-10-23T02:09:54.161Z,100.00
2022-10-23T02:11:04.515Z,100.00
2022-10-23T02:12:09.296Z,100.00
2022-10-23T02:13:16.725Z,100.00
2022-10-23T02:14:24.415Z,100.00
2022-10-23T02:15:30.706Z,100.00
2022-10-23T02:16:39.340Z,100.00
2022-10-23T02:17:50.296Z,100.00
2022-10-23T02:18:59.435Z,100.00
2022-10-23T02:20:14.483Z,100.00
2022-10-23T02:21:22.238Z,100.00
2022-10-23T02:22:28.672Z,100.00
2022-10-23T02:23:35.283Z,100.00
2022-10-23T02:24:43.416Z,100.00
2022-10-23T02:25:51.310Z,100.00
2022-10-23T02:26:55.188Z,100.00
2022-10-23T02:28:01.054Z,100.00
2022-10-23T02:29:09.202Z,100.00
2022-10-23T02:30:12.614Z,100.00
2022-10-23T02:31:18.730Z,100.00
2022-10-23T02:32:23.481Z,100.00
2022-10-23T02:33:27.174Z,100.00
2022-10-23T02:34:28.712Z,100.00
2022-10-23T02:35:30.396Z,100.00
2022-10-23T02:36:32.439Z,100.00
2022-10-23T02:37:33.884Z,100.00
2022-10-23T02:38:37.217Z,100.00
2022-10-23T02:39:39.277Z,100.00
2022-10-23T02:40:44.087Z,100.00
2022-10-23T02:41:51.037Z,100.00
2022-10-23T02:42:57.955Z,100.00
2022-10-23T02:44:15.604Z,100.00
2022-10-23T02:45:23.981Z,100.00
2022-10-23T02:46:31.930Z,100.00
2022-10-23T02:47:44.540Z,100.00
2022-10-23T02:48:55.596Z,100.00
2022-10-23T02:50:05.427Z,100.00
2022-10-23T02:51:11.961Z,100.00
2022-10-23T02:52:19.889Z,100.00
2022-10-23T02:53:31.812Z,100.00
2022-10-23T02:54:58.868Z,100.00
2022-10-23T02:56:06.855Z,100.00
2022-10-23T02:57:18.876Z,100.00
2022-10-23T02:58:26.854Z,100.00
2022-10-23T02:59:36.948Z,100.00
2022-10-23T03:00:44.738Z,100.00
2022-10-23T03:01:52.548Z,100.00
2022-10-23T03:02:57.880Z,100.00
2022-10-23T03:04:02.920Z,100.00
2022-10-23T03:05:08.475Z,100.00
2022-10-23T03:06:09.982Z,100.00
2022-10-23T03:07:13.570Z,100.00
2022-10-23T03:08:15.358Z,100.00
2022-10-23T03:09:17.511Z,100.00
2022-10-23T03:10:19.003Z,100.00
2022-10-23T03:11:20.804Z,100.00
2022-10-23T03:12:24.717Z,100.00
2022-10-23T03:13:26.316Z,100.00
2022-10-23T03:14:27.733Z,100.00
2022-10-23T03:15:30.503Z,100.00
2022-10-23T03:16:32.084Z,100.00
2022-10-23T03:17:33.585Z,100.00
2022-10-23T03:18:35.213Z,100.00
2022-10-23T03:19:36.680Z,100.00
2022-10-23T03:20:38.109Z,100.00
2022-10-23T03:21:39.596Z,100.00
2022-10-23T03:22:41.385Z,100.00
2022-10-23T03:23:43.144Z,100.00
2022-10-23T03:24:44.662Z,100.00
2022-10-23T03:25:46.172Z,100.00
2022-10-23T03:26:47.600Z,100.00
2022-10-23T03:27:49.027Z,100.00
2022-10-23T03:28:50.454Z,100.00
2022-10-23T03:29:51.895Z,100.00
2022-10-23T03:30:54.745Z,100.00
2022-10-23T03:31:56.161Z,100.00
2022-10-23T03:32:57.732Z,100.00
2022-10-23T03:33:59.145Z,100.00
2022-10-23T03:35:00.614Z,100.00
2022-10-23T03:36:02.079Z,100.00
2022-10-23T03:37:03.528Z,100.00
2022-10-23T03:38:05.000Z,100.00
2022-10-23T03:39:06.425Z,100.00
2022-10-23T03:40:09.202Z,100.00
2022-10-23T03:41:10.767Z,100.00
2022-10-23T03:42:12.175Z,100.00
2022-10-23T03:43:13.646Z,100.00
2022-10-23T03:44:15.085Z,100.00
2022-10-23T03:45:16.745Z,100.00
2022-10-23T03:46:19.537Z,100.00
2022-10-23T03:47:20.947Z,100.00
2022-10-23T03:48:22.446Z,100.00
2022-10-23T03:49:23.852Z,100.00
2022-10-23T03:50:25.416Z,100.00
2022-10-23T03:51:26.947Z,100.00
2022-10-23T03:52:28.402Z,100.00
2022-10-23T03:53:29.840Z,100.00
2022-10-23T03:54:31.483Z,100.00
2022-10-23T03:55:32.923Z,100.00
2022-10-23T03:56:34.469Z,100.00
2022-10-23T03:57:36.227Z,100.00
2022-10-23T03:58:37.718Z,100.00
2022-10-23T03:59:39.228Z,100.00
2022-10-23T04:00:41.082Z,100.00
2022-10-23T04:01:44.482Z,100.00
2022-10-23T04:02:46.632Z,100.00
2022-10-23T04:03:48.219Z,99.89
2022-10-23T04:04:49.792Z,99.74
2022-10-23T04:05:52.324Z,99.21
2022-10-23T04:06:53.945Z,98.85
2022-10-23T04:07:55.430Z,98.01
2022-10-23T04:08:56.895Z,97.91
2022-10-23T04:09:58.318Z,97.49
2022-10-23T04:10:59.887Z,97.26
2022-10-23T04:12:01.336Z,96.95
2022-10-23T04:13:02.766Z,96.83
2022-10-23T04:14:04.263Z,96.85
2022-10-23T04:15:06.438Z,96.86
2022-10-23T04:16:07.934Z,97.31
2022-10-23T04:17:10.724Z,97.08
2022-10-23T04:18:12.126Z,97.55
2022-10-23T04:19:13.611Z,97.10
2022-10-23T04:20:15.096Z,98.21
2022-10-23T04:21:16.799Z,98.63
2022-10-23T04:22:18.295Z,98.42
2022-10-23T04:23:20.129Z,98.54
2022-10-23T04:24:21.566Z,97.69
2022-10-23T04:25:23.037Z,98.35
2022-10-23T04:26:24.604Z,98.70
2022-10-23T04:27:26.003Z,98.59
2022-10-23T04:28:28.024Z,98.53
2022-10-23T04:29:29.502Z,97.68
2022-10-23T04:30:30.908Z,97.87
2022-10-23T04:31:32.348Z,97.82
2022-10-23T04:32:35.222Z,97.55
2022-10-23T04:33:36.701Z,97.18
2022-10-23T04:34:38.103Z,96.64
2022-10-23T04:35:39.533Z,96.43
2022-10-23T04:36:41.184Z,96.67
2022-10-23T04:37:42.960Z,97.70
2022-10-23T04:38:44.620Z,99.82
2022-10-23T04:39:46.112Z,100.00
2022-10-23T04:40:47.535Z,100.00
2022-10-23T04:41:48.951Z,100.00
2022-10-23T04:42:50.339Z,100.00
2022-10-23T04:43:51.795Z,100.00
2022-10-23T04:44:53.209Z,100.00
2022-10-23T04:45:54.616Z,100.00
2022-10-23T04:46:56.086Z,100.00
2022-10-23T04:47:58.994Z,100.00
2022-10-23T04:49:00.384Z,100.00
2022-10-23T04:50:01.898Z,100.00
2022-10-23T04:51:05.586Z,100.00
2022-10-23T04:52:07.071Z,100.00
2022-10-23T04:53:08.919Z,100.00
2022-10-23T04:54:10.429Z,100.00
2022-10-23T04:55:12.053Z,100.00
2022-10-23T04:56:14.126Z,100.00
2022-10-23T04:57:15.589Z,100.00
2022-10-23T04:58:17.132Z,100.00
2022-10-23T04:59:18.588Z,100.00
2022-10-23T05:00:20.219Z,100.00
2022-10-23T05:01:21.773Z,100.00
2022-10-23T05:02:23.294Z,100.00
2022-10-23T05:03:26.758Z,100.00
2022-10-23T05:04:28.180Z,100.00
2022-10-23T05:05:29.606Z,100.00
2022-10-23T05:06:31.064Z,100.00
2022-10-23T05:07:32.659Z,100.00
2022-10-23T05:08:34.172Z,100.00
2022-10-23T05:09:35.578Z,100.00
2022-10-23T05:10:37.382Z,100.00
2022-10-23T05:11:38.803Z,100.00
2022-10-23T05:12:40.221Z,100.00
2022-10-23T05:13:41.636Z,100.00
2022-10-23T05:14:43.054Z,100.00
2022-10-23T05:15:44.490Z,100.00
2022-10-23T05:16:50.374Z,100.00
2022-10-23T05:17:55.669Z,100.00
2022-10-23T05:18:59.076Z,100.00
2022-10-23T05:20:03.821Z,100.00
2022-10-23T05:21:10.109Z,100.00
2022-10-23T05:22:12.715Z,100.00
2022-10-23T05:23:16.308Z,100.00
2022-10-23T05:24:17.822Z,100.00
2022-10-23T05:25:19.267Z,100.00
2022-10-23T05:26:21.250Z,100.00
2022-10-23T05:27:22.750Z,100.00
2022-10-23T05:28:24.233Z,100.00
2022-10-23T05:29:25.654Z,100.00
2022-10-23T05:30:27.375Z,100.00
2022-10-23T05:31:29.458Z,100.00
2022-10-23T05:32:32.076Z,100.00
2022-10-23T05:33:35.921Z,100.00
2022-10-23T05:34:39.862Z,100.00
2022-10-23T05:35:43.954Z,100.00
2022-10-23T05:36:45.953Z,100.00
2022-10-23T05:37:49.981Z,100.00
2022-10-23T05:38:51.837Z,100.00
2022-10-23T05:39:53.307Z,100.00
2022-10-23T05:40:55.096Z,100.00
2022-10-23T05:41:56.502Z,100.00
2022-10-23T05:42:57.980Z,100.00
2022-10-23T05:43:59.427Z,100.00
2022-10-23T05:45:00.887Z,100.00
2022-10-23T05:46:04.373Z,100.00
2022-10-23T05:47:06.896Z,100.00
2022-10-23T05:48:11.336Z,100.00
2022-10-23T05:49:24.407Z,100.00
2022-10-23T05:50:27.221Z,100.00
2022-10-23T05:51:28.672Z,100.00
2022-10-23T05:52:30.101Z,100.00
2022-10-23T05:53:31.568Z,100.00
2022-10-23T05:54:32.991Z,100.00
2022-10-23T05:55:34.456Z,100.00
2022-10-23T05:56:37.381Z,100.00
2022-10-23T05:57:38.796Z,100.00
2022-10-23T05:58:40.208Z,100.00
2022-10-23T05:59:41.669Z,100.00
2022-10-23T06:00:43.110Z,100.00
2022-10-23T06:01:44.606Z,100.00
2022-10-23T06:02:46.068Z,100.00
2022-10-23T06:03:47.494Z,100.00
2022-10-23T06:04:48.918Z,100.00
2022-10-23T06:05:52.124Z,100.00
2022-10-23T06:06:53.530Z,100.00
2022-10-23T06:07:58.183Z,100.00
2022-10-23T06:08:59.614Z,100.00
2022-10-23T06:10:01.101Z,100.00
2022-10-23T06:11:07.511Z,100.00
2022-10-23T06:12:08.958Z,100.00
2022-10-23T06:13:10.463Z,100.00
2022-10-23T06:14:11.887Z,100.00
2022-10-23T06:15:13.367Z,100.00
2022-10-23T06:16:16.605Z,100.00
2022-10-23T06:17:18.012Z,100.00
2022-10-23T06:18:19.425Z,100.00
2022-10-23T06:19:20.835Z,100.00
2022-10-23T06:20:26.544Z,100.00
2022-10-23T06:21:31.532Z,100.00
2022-10-23T06:22:33.585Z,100.00
2022-10-23T06:23:37.025Z,100.00
2022-10-23T06:24:38.423Z,100.00
2022-10-23T06:25:39.830Z,100.00
2022-10-23T06:26:41.219Z,100.00
2022-10-23T06:27:42.609Z,100.00
2022-10-23T06:28:44.111Z,100.00
2022-10-23T06:29:45.565Z,100.00
2022-10-23T06:30:47.003Z,100.00
2022-10-23T06:31:48.451Z,100.00
2022-10-23T06:32:50.103Z,100.00
2022-10-23T06:33:51.533Z,100.00
2022-10-23T06:34:52.974Z,100.00
2022-10-23T06:35:55.797Z,100.00
2022-10-23T06:36:58.590Z,100.00
2022-10-23T06:38:00.047Z,100.00
2022-10-23T06:39:01.530Z,100.00
2022-10-23T06:40:03.399Z,100.00
2022-10-23T06:41:06.243Z,100.00
2022-10-23T06:42:07.699Z,100.00
2022-10-23T06:43:09.110Z,100.00
2022-10-23T06:44:10.538Z,100.00
2022-10-23T06:45:11.975Z,100.00
2022-10-23T06:46:13.402Z,100.00
2022-10-23T06:47:14.831Z,100.00
2022-10-23T06:48:16.564Z,100.00
2022-10-23T06:49:18.042Z,100.00
2022-10-23T06:50:19.483Z,100.00
2022-10-23T06:51:20.943Z,100.00
2022-10-23T06:52:42.048Z,100.00
2022-10-23T06:53:45.335Z,100.00
2022-10-23T06:54:46.728Z,100.00
2022-10-23T06:55:50.209Z,100.00
2022-10-23T06:56:54.490Z,100.00
2022-10-23T06:57:55.911Z,99.78
2022-10-23T06:58:57.354Z,99.04
2022-10-23T06:59:58.777Z,98.81
2022-10-23T07:01:00.699Z,99.60
2022-10-23T07:02:02.769Z,100.00
2022-10-23T07:03:04.808Z,100.00
2022-10-23T07:04:06.270Z,100.00
2022-10-23T07:05:11.264Z,100.00
2022-10-23T07:06:15.451Z,100.00
2022-10-23T07:07:16.968Z,100.00
2022-10-23T07:08:19.768Z,100.00
2022-10-23T07:09:21.212Z,100.00
2022-10-23T07:10:22.961Z,100.00
2022-10-23T07:11:24.375Z,100.00
2022-10-23T07:12:25.791Z,100.00
2022-10-23T07:13:27.230Z,100.00
2022-10-23T07:14:28.701Z,100.00
2022-10-23T07:15:30.333Z,100.00
2022-10-23T07:16:31.811Z,100.00
2022-10-23T07:17:33.224Z,100.00
2022-10-23T07:19:40.975Z,99.30
2022-10-23T07:20:43.019Z,98.17
2022-10-23T07:21:44.416Z,97.88
2022-10-23T07:22:51.026Z,97.44
2022-10-23T07:23:53.779Z,97.92
2022-10-23T07:24:55.179Z,97.61
2022-10-23T07:26:02.097Z,97.32
2022-10-23T07:27:04.349Z,96.94
2022-10-23T07:28:05.764Z,96.92
2022-10-23T07:29:07.517Z,96.24
2022-10-23T07:30:10.154Z,96.15
2022-10-23T07:31:12.145Z,95.84
2022-10-23T07:32:13.585Z,96.47
2022-10-23T07:33:15.033Z,96.59
2022-10-23T07:34:16.444Z,96.73
2022-10-23T07:35:18.120Z,96.46
2022-10-23T07:36:19.670Z,96.13
2022-10-23T07:37:21.061Z,96.69
2022-10-23T07:38:22.515Z,97.07
2022-10-23T07:39:25.613Z,97.13
2022-10-23T07:40:27.004Z,96.45
2022-10-23T07:41:28.445Z,97.49
2022-10-23T07:42:29.864Z,97.54
2022-10-23T07:44:33.683Z,98.26
2022-10-23T07:45:35.129Z,97.49
2022-10-23T07:46:36.547Z,94.41
2022-10-23T07:47:38.348Z,92.52
2022-10-23T07:48:40.229Z,91.88
2022-10-23T07:49:41.698Z,91.22
2022-10-23T07:50:43.205Z,90.98
2022-10-23T07:51:48.938Z,92.09
2022-10-23T07:52:52.769Z,91.50
2022-10-23T07:53:54.188Z,90.37
2022-10-23T07:54:56.928Z,89.76
2022-10-23T07:56:00.787Z,90.49
2022-10-23T07:57:02.215Z,91.51
2022-10-23T07:58:03.633Z,91.55
2022-10-23T07:59:05.155Z,91.59
2022-10-23T08:00:07.833Z,90.32
2022-10-23T08:01:17.189Z,90.64
2022-10-23T08:02:18.697Z,89.86
2022-10-23T08:03:20.305Z,88.96
2022-10-23T08:04:21.979Z,87.95
2022-10-23T08:05:23.456Z,88.66
2022-10-23T08:06:25.203Z,88.29
2022-10-23T08:07:26.619Z,88.39
2022-10-23T08:08:28.029Z,88.50
2022-10-23T08:09:29.499Z,87.33
2022-10-23T08:10:32.260Z,87.15
2022-10-23T08:11:34.296Z,86.72
2022-10-23T08:12:37.280Z,87.18
2022-10-23T08:13:38.705Z,87.28
2022-10-23T08:14:40.195Z,87.03
2022-10-23T08:15:43.013Z,86.92
2022-10-23T08:16:44.463Z,86.88
2022-10-23T08:17:46.124Z,92.03
2022-10-23T08:18:47.581Z,96.84
2022-10-23T08:19:49.042Z,98.29
2022-10-23T08:20:50.529Z,99.16
2022-10-23T08:21:51.998Z,100.00
2022-10-23T08:22:53.457Z,100.00
2022-10-23T08:23:56.164Z,100.00
2022-10-23T08:24:57.571Z,100.00
2022-10-23T08:26:01.989Z,100.00
2022-10-23T08:27:03.883Z,100.00
2022-10-23T08:28:06.497Z,100.00
2022-10-23T08:29:07.969Z,100.00
2022-10-23T08:30:10.519Z,100.00
2022-10-23T08:31:14.384Z,100.00
2022-10-23T08:32:15.873Z,100.00
2022-10-23T08:33:17.289Z,100.00
2022-10-23T08:34:18.716Z,100.00
2022-10-23T08:35:20.231Z,100.00
2022-10-23T08:36:23.760Z,99.94
2022-10-23T08:37:25.171Z,100.00
2022-10-23T08:38:26.612Z,96.28
2022-10-23T08:39:28.046Z,91.23
2022-10-23T08:40:29.478Z,89.76
2022-10-23T08:41:35.108Z,87.62
2022-10-23T08:42:39.312Z,87.99
2022-10-23T08:43:46.678Z,85.38
2022-10-23T08:44:56.995Z,85.74
2022-10-23T08:46:06.173Z,84.80
2022-10-23T08:47:14.873Z,82.82
2022-10-23T08:48:21.357Z,83.48
2022-10-23T08:49:34.011Z,82.39
2022-10-23T08:50:40.836Z,80.72
2022-10-23T08:51:46.648Z,80.27
2022-10-23T08:52:52.073Z,81.19
2022-10-23T08:53:59.254Z,78.15
2022-10-23T08:55:10.844Z,79.46
2022-10-23T08:56:18.159Z,79.69
2022-10-23T08:57:23.725Z,80.30
2022-10-23T08:58:34.222Z,79.97
2022-10-23T08:59:42.919Z,81.03
2022-10-23T09:00:50.155Z,79.92
2022-10-23T09:01:58.082Z,80.10
2022-10-23T09:03:02.602Z,80.04
2022-10-23T09:04:05.119Z,79.46
2022-10-23T09:05:13.605Z,80.23
2022-10-23T09:06:25.127Z,79.96
2022-10-23T09:07:38.465Z,79.58
2022-10-23T09:08:46.925Z,79.70
2022-10-23T09:10:01.566Z,77.11
2022-10-23T09:11:08.048Z,78.16
2022-10-23T09:12:13.067Z,77.30
2022-10-23T09:13:40.143Z,76.39
2022-10-23T09:15:02.421Z,76.72
2022-10-23T09:16:15.116Z,75.70
2022-10-23T09:17:24.273Z,75.95
2022-10-23T09:18:26.102Z,75.87
2022-10-23T09:19:27.977Z,75.09
2022-10-23T09:20:32.812Z,74.09
2022-10-23T09:21:35.794Z,74.61
2022-10-23T09:22:37.294Z,72.14
2022-10-23T09:23:38.734Z,74.02
2022-10-23T09:24:42.996Z,74.66
2022-10-23T09:25:45.938Z,76.74
2022-10-23T09:26:48.826Z,75.96
2022-10-23T09:27:54.977Z,82.41
2022-10-23T09:29:14.058Z,87.89
2022-10-23T09:30:29.092Z,91.33
2022-10-23T09:31:30.520Z,91.10
2022-10-23T09:32:33.953Z,89.05
2022-10-23T09:33:35.499Z,88.84
2022-10-23T09:34:36.948Z,87.01
2022-10-23T09:35:38.372Z,86.74
2022-10-23T09:36:49.828Z,85.20
2022-10-23T09:37:51.819Z,83.70
2022-10-23T09:38:54.590Z,79.16
2022-10-23T09:40:14.307Z,77.48
2022-10-23T09:41:19.255Z,72.79
2022-10-23T09:42:23.632Z,71.31
2022-10-23T09:43:25.081Z,71.23
2022-10-23T09:44:30.460Z,72.32
2022-10-23T09:45:34.221Z,73.33
2022-10-23T09:46:39.898Z,73.94
2022-10-23T09:47:42.155Z,73.22
2022-10-23T09:48:43.808Z,72.99
2022-10-23T09:49:48.148Z,72.74
2022-10-23T09:50:51.796Z,72.03
2022-10-23T09:51:59.588Z,70.96
2022-10-23T09:53:01.093Z,69.13
2022-10-23T09:54:02.556Z,69.64
2022-10-23T09:55:19.866Z,69.08
2022-10-23T09:56:26.464Z,68.00
2022-10-23T09:57:32.112Z,67.65
2022-10-23T09:58:36.314Z,67.89
2022-10-23T09:59:40.336Z,67.55
2022-10-23T10:00:47.235Z,67.68
2022-10-23T10:01:51.756Z,67.23
2022-10-23T10:02:58.910Z,66.96
2022-10-23T10:04:00.347Z,67.52
2022-10-23T10:05:22.461Z,68.29
2022-10-23T10:06:26.258Z,66.51
2022-10-23T10:07:33.415Z,65.30
2022-10-23T10:08:42.678Z,65.79
2022-10-23T10:09:44.145Z,66.10
2022-10-23T10:10:52.080Z,66.81
2022-10-23T10:11:55.783Z,66.37
2022-10-23T10:13:00.706Z,66.70
2022-10-23T10:14:26.869Z,64.61
2022-10-23T10:15:35.325Z,66.47
2022-10-23T10:16:44.175Z,65.41
2022-10-23T10:17:57.266Z,65.62
2022-10-23T10:19:05.866Z,67.07
2022-10-23T10:20:23.583Z,67.25
2022-10-23T10:21:28.499Z,66.96
2022-10-23T10:22:35.497Z,67.26
2022-10-23T10:23:46.440Z,66.21
2022-10-23T10:24:53.214Z,64.27
2022-10-23T10:26:03.057Z,65.07
2022-10-23T10:27:14.061Z,64.41
2022-10-23T10:28:30.938Z,64.72
2022-10-23T10:29:52.400Z,64.52
2022-10-23T10:31:08.791Z,64.23
2022-10-23T10:32:27.002Z,64.36
2022-10-23T10:33:35.692Z,65.34
2022-10-23T10:34:46.047Z,65.75
2022-10-23T10:35:55.063Z,63.51
2022-10-23T10:37:05.824Z,64.11
2022-10-23T10:38:31.549Z,63.65
2022-10-23T10:39:40.835Z,63.48
2022-10-23T10:40:47.594Z,63.01
2022-10-23T10:42:16.571Z,62.62
2022-10-23T10:43:29.050Z,62.95
2022-10-23T10:44:50.516Z,62.70
2022-10-23T10:46:02.886Z,62.07
2022-10-23T10:47:15.883Z,62.89
2022-10-23T10:48:40.902Z,63.29
2022-10-23T10:49:48.028Z,63.81
2022-10-23T10:50:54.219Z,63.25
2022-10-23T10:52:04.299Z,64.17
2022-10-23T10:53:14.904Z,65.99
2022-10-23T10:54:27.665Z,66.53
2022-10-23T10:55:34.932Z,65.28
2022-10-23T10:56:41.546Z,65.79
2022-10-23T10:57:47.318Z,66.19
2022-10-23T10:58:52.922Z,65.96
2022-10-23T10:59:58.816Z,67.03
2022-10-23T11:01:08.357Z,68.01
2022-10-23T11:02:26.517Z,66.53
2022-10-23T11:03:37.581Z,66.74
2022-10-23T11:04:47.370Z,66.92
2022-10-23T11:05:51.545Z,68.68
2022-10-23T11:06:55.302Z,68.59
2022-10-23T11:07:59.879Z,67.42
2022-10-23T11:09:20.373Z,69.52
2022-10-23T11:10:22.434Z,70.04
2022-10-23T11:11:31.295Z,70.54
2022-10-23T11:12:32.872Z,69.97
2022-10-23T11:13:36.950Z,71.26
2022-10-23T11:14:38.399Z,69.49
2022-10-23T11:15:43.849Z,70.36
2022-10-23T11:16:50.321Z,71.22
2022-10-23T11:17:55.703Z,71.60
2022-10-23T11:19:07.500Z,72.48
2022-10-23T11:20:25.047Z,70.37
2022-10-23T11:21:34.736Z,71.67
2022-10-23T11:22:42.960Z,72.01
2022-10-23T11:24:07.596Z,72.34
2022-10-23T11:25:26.231Z,73.52
2022-10-23T11:26:39.390Z,72.05
2022-10-23T11:28:04.429Z,73.00
2022-10-23T11:29:40.222Z,73.21
2022-10-23T11:30:59.009Z,73.05
2022-10-23T11:32:19.941Z,71.92
2022-10-23T11:33:57.983Z,73.77
2022-10-23T11:35:21.360Z,74.06
2022-10-23T11:36:41.356Z,74.26
2022-10-23T11:37:43.079Z,75.39
2022-10-23T11:38:47.435Z,73.97
2022-10-23T11:40:17.042Z,75.18
2022-10-23T11:41:25.295Z,74.67
2022-10-23T11:42:32.866Z,74.26
2022-10-23T11:43:47.808Z,74.45
2022-10-23T11:44:50.461Z,73.26
2022-10-23T11:45:51.932Z,75.41
2022-10-23T11:47:01.459Z,74.77
2022-10-23T11:48:06.607Z,74.49
2022-10-23T11:49:20.845Z,75.01
2022-10-23T11:50:31.845Z,74.61
2022-10-23T11:51:35.190Z,73.99
2022-10-23T11:52:45.703Z,73.76
2022-10-23T11:53:52.284Z,74.47
2022-10-23T11:55:01.146Z,74.76
2022-10-23T11:56:05.220Z,75.10
2022-10-23T11:57:12.489Z,75.33
2022-10-23T11:58:25.252Z,75.88
2022-10-23T11:59:30.090Z,74.56
2022-10-23T12:00:33.346Z,75.44
2022-10-23T12:01:40.415Z,73.95
2022-10-23T12:02:43.222Z,70.54
2022-10-23T12:03:53.907Z,70.98
2022-10-23T12:04:55.824Z,73.18
2022-10-23T12:06:02.022Z,74.58
2022-10-23T12:07:16.287Z,72.98
2022-10-23T12:08:22.299Z,70.26
2022-10-23T12:09:27.479Z,71.71
2022-10-23T12:10:32.417Z,70.89
2022-10-23T12:11:44.185Z,69.26
2022-10-23T12:12:55.423Z,71.07
2022-10-23T12:13:56.914Z,72.83
2022-10-23T12:15:18.109Z,72.27
2022-10-23T12:16:19.577Z,71.00
2022-10-23T12:17:33.495Z,71.01
2022-10-23T12:18:45.829Z,70.85
2022-10-23T12:19:51.164Z,70.20
2022-10-23T12:20:56.293Z,71.27
2022-10-23T12:22:00.720Z,70.60
2022-10-23T12:23:15.691Z,70.83
2022-10-23T12:24:33.519Z,70.86
2022-10-23T12:25:45.760Z,70.50
2022-10-23T12:27:10.455Z,72.79
2022-10-23T12:28:34.287Z,68.02
2022-10-23T12:29:53.183Z,67.90
2022-10-23T12:31:07.381Z,68.55
2022-10-23T12:32:25.144Z,66.03
2022-10-23T12:33:32.501Z,69.46
2022-10-23T12:34:45.776Z,70.54
2022-10-23T12:36:13.729Z,70.33
2022-10-23T12:37:35.204Z,71.13
2022-10-23T12:38:44.555Z,71.84
2022-10-23T12:39:52.405Z,72.16
2022-10-23T12:40:56.570Z,72.46
2022-10-23T12:41:59.249Z,72.68
2022-10-23T12:43:01.470Z,72.91
2022-10-23T12:44:05.446Z,72.55
2022-10-23T12:45:17.253Z,73.80
2022-10-23T12:46:28.783Z,72.58
2022-10-23T12:47:30.712Z,73.51
2022-10-23T12:48:33.567Z,73.14
2022-10-23T12:49:35.001Z,73.82
2022-10-23T12:50:37.399Z,73.21
2022-10-23T12:51:40.381Z,72.70
2022-10-23T12:52:51.012Z,72.44
2022-10-23T12:53:52.693Z,72.07
2022-10-23T12:54:54.189Z,72.57
2022-10-23T12:55:57.843Z,72.66
2022-10-23T12:56:59.519Z,72.27
2022-10-23T12:58:00.968Z,72.37
2022-10-23T12:59:02.865Z,72.63
2022-10-23T13:00:10.675Z,71.94
2022-10-23T13:01:23.970Z,72.27
2022-10-23T13:02:27.109Z,72.21
2022-10-23T13:03:30.498Z,71.91
2022-10-23T13:04:34.576Z,72.29
2022-10-23T13:05:37.245Z,72.21
2022-10-23T13:06:40.483Z,72.55
2022-10-23T13:07:46.020Z,72.59
2022-10-23T13:08:48.003Z,72.46
2022-10-23T13:09:49.736Z,71.76
2022-10-23T13:10:51.236Z,73.08
2022-10-23T13:11:52.916Z,72.54
2022-10-23T13:12:59.358Z,72.63
2022-10-23T13:14:00.812Z,74.06
2022-10-23T13:15:15.769Z,74.36
2022-10-23T13:16:18.624Z,74.51
2022-10-23T13:17:20.054Z,74.22
2022-10-23T13:18:21.501Z,74.56
2022-10-23T13:19:23.991Z,74.19
2022-10-23T13:20:27.925Z,73.70
2022-10-23T13:21:29.912Z,74.40
2022-10-23T13:22:32.767Z,74.29
2022-10-23T13:23:35.794Z,75.15
2022-10-23T13:24:37.236Z,75.56
2022-10-23T13:25:39.761Z,76.57
2022-10-23T13:26:41.622Z,76.59
2022-10-23T13:27:43.450Z,77.40
2022-10-23T13:28:45.923Z,76.28
2022-10-23T13:29:47.412Z,76.39
2022-10-23T13:31:01.449Z,76.27
2022-10-23T13:32:10.192Z,76.20
2022-10-23T13:33:22.594Z,75.93
2022-10-23T13:34:26.524Z,76.01
2022-10-23T13:35:27.941Z,75.53
2022-10-23T13:36:30.851Z,75.74
2022-10-23T13:37:33.722Z,76.28
2022-10-23T13:38:37.547Z,75.95
2022-10-23T13:39:38.936Z,75.97
2022-10-23T13:40:40.382Z,76.84
2022-10-23T13:41:43.690Z,77.72
2022-10-23T13:42:47.773Z,77.96
2022-10-23T13:43:49.377Z,79.07
2022-10-23T13:44:50.797Z,77.89
2022-10-23T13:45:52.202Z,77.11
2022-10-23T13:46:53.597Z,76.70
2022-10-23T13:47:55.178Z,76.18
2022-10-23T13:48:56.640Z,76.46
2022-10-23T13:49:58.083Z,76.63
2022-10-23T13:51:10.888Z,75.56
2022-10-23T13:52:14.361Z,76.23